createdAt,value
2022-12-16T00:00:16.927Z,-2.57
2022-12-16T00:03:05.046Z,-2.54
2022-12-16T00:05:52.996Z,-2.56
2022-12-16T00:08:42.830Z,-2.63
2022-12-16T00:11:32.311Z,-2.73
2022-12-16T00:14:21.598Z,-2.70
2022-12-16T00:17:09.528Z,-2.73
2022-12-16T00:19:57.464Z,-2.72
2022-12-16T00:22:45.437Z,-2.76
2022-12-16T00:25:33.357Z,-2.86
2022-12-16T00:28:22.866Z,-2.86
2022-12-16T00:31:13.193Z,-2.86
2022-12-16T00:34:01.248Z,-2.81
2022-12-16T00:36:49.262Z,-2.82
2022-12-16T00:39:37.224Z,-2.88
2022-12-16T00:42:25.141Z,-2.95
2022-12-16T00:45:13.100Z,-2.92
2022-12-16T00:48:02.567Z,-3.02
2022-12-16T00:50:51.897Z,-3.06
2022-12-16T00:53:40.082Z,-2.97
2022-12-16T00:56:28.085Z,-3.00
2022-12-16T00:59:16.137Z,-3.10
2022-12-16T01:02:04.417Z,-3.17
2022-12-16T01:04:53.851Z,-3.23
2022-12-16T01:07:42.827Z,-3.27
2022-12-16T01:10:30.731Z,-3.35
2022-12-16T01:13:18.719Z,-3.41
2022-12-16T01:16:07.171Z,-3.43
2022-12-16T01:18:57.014Z,-3.44
2022-12-16T01:21:46.394Z,-3.50
2022-12-16T01:24:34.421Z,-3.50
2022-12-16T01:27:22.368Z,-3.53
2022-12-16T01:30:12.044Z,-3.48
2022-12-16T01:32:59.978Z,-3.44
2022-12-16T01:35:55.912Z,-3.56
2022-12-16T01:38:45.802Z,-3.55
2022-12-16T01:41:33.746Z,-3.55
2022-12-16T01:44:24.436Z,-3.63
2022-12-16T01:47:17.475Z,-3.67
2022-12-16T01:50:11.582Z,-3.70
2022-12-16T01:53:02.756Z,-3.76
2022-12-16T01:55:54.700Z,-3.81
2022-12-16T01:58:44.829Z,-3.85
2022-12-16T02:01:33.117Z,-4.27
2022-12-16T02:04:21.133Z,-3.97
2022-12-16T02:07:09.080Z,-4.03
2022-12-16T02:09:57.354Z,-4.15
2022-12-16T02:12:55.514Z,-4.42
2022-12-16T02:15:49.402Z,-4.42
2022-12-16T02:18:48.341Z,-4.42
2022-12-16T02:21:58.156Z,-4.51
2022-12-16T02:25:01.314Z,-4.80
2022-12-16T02:28:05.768Z,-4.61
2022-12-16T02:31:10.812Z,-4.84
2022-12-16T02:34:09.259Z,-4.86
2022-12-16T02:37:07.251Z,-5.48
2022-12-16T02:40:01.033Z,-5.29
2022-12-16T02:42:55.491Z,-4.99
2022-12-16T02:45:44.503Z,-4.99
2022-12-16T02:48:33.826Z,-4.98
2022-12-16T02:51:24.008Z,-5.08
2022-12-16T02:54:13.268Z,-5.11
2022-12-16T02:57:13.500Z,-5.09
2022-12-16T03:00:05.877Z,-5.02
2022-12-16T03:02:58.111Z,-4.95
2022-12-16T03:05:49.811Z,-4.98
2022-12-16T03:09:06.267Z,-4.93
2022-12-16T03:11:57.662Z,-4.97
2022-12-16T03:14:49.508Z,-5.03
2022-12-16T03:17:38.692Z,-5.11
2022-12-16T03:20:31.172Z,-5.14
2022-12-16T03:23:26.734Z,-5.26
2022-12-16T03:26:19.349Z,-5.30
2022-12-16T03:29:12.839Z,-5.29
2022-12-16T03:32:06.112Z,-5.29
2022-12-16T03:35:00.162Z,-5.67
2022-12-16T03:37:51.198Z,-5.41
2022-12-16T03:40:42.993Z,-5.42
2022-12-16T03:43:31.501Z,-5.31
2022-12-16T03:46:20.104Z,-5.56
2022-12-16T03:49:08.042Z,-5.35
2022-12-16T03:51:56.270Z,-5.28
2022-12-16T03:54:44.160Z,-5.32
2022-12-16T03:57:33.386Z,-5.42
2022-12-16T04:00:22.036Z,-5.56
2022-12-16T04:03:10.163Z,-5.55
2022-12-16T04:05:58.258Z,-5.66
2022-12-16T04:08:46.494Z,-5.74
2022-12-16T04:11:52.147Z,-5.73
2022-12-16T04:14:58.772Z,-5.76
2022-12-16T04:18:04.108Z,-5.72
2022-12-16T04:21:12.360Z,-5.76
2022-12-16T04:24:17.879Z,-5.84
2022-12-16T04:27:23.677Z,-5.90
2022-12-16T04:30:20.202Z,-5.89
2022-12-16T04:33:28.623Z,-6.00
2022-12-16T04:36:34.328Z,-6.01
2022-12-16T04:39:45.031Z,-6.07
2022-12-16T04:42:51.150Z,-6.19
2022-12-16T04:45:58.859Z,-6.38
2022-12-16T04:49:04.468Z,-6.43
2022-12-16T04:52:09.790Z,-6.46
2022-12-16T04:55:15.574Z,-6.51
2022-12-16T04:58:21.381Z,-6.53
2022-12-16T05:01:28.562Z,-6.45
2022-12-16T05:04:34.021Z,-6.47
2022-12-16T05:07:39.516Z,-6.27
2022-12-16T05:10:45.187Z,-6.20
2022-12-16T05:13:47.022Z,-6.31
2022-12-16T05:16:54.037Z,-6.46
2022-12-16T05:19:59.725Z,-6.61
2022-12-16T05:23:05.206Z,-6.72
2022-12-16T05:26:11.001Z,-6.78
2022-12-16T05:29:16.473Z,-6.93
2022-12-16T05:32:31.846Z,-6.86
2022-12-16T05:35:37.668Z,-6.73
2022-12-16T05:38:43.318Z,-6.88
2022-12-16T05:41:48.990Z,-6.93
2022-12-16T05:44:54.500Z,-6.93
2022-12-16T05:48:00.514Z,-6.72
2022-12-16T05:51:12.535Z,-6.81
2022-12-16T05:54:18.385Z,-6.65
2022-12-16T05:57:24.285Z,-6.63
2022-12-16T06:00:31.666Z,-6.77
2022-12-16T06:03:39.184Z,-6.84
2022-12-16T06:06:45.226Z,-6.87
2022-12-16T06:09:54.863Z,-7.12
2022-12-16T06:13:04.913Z,-7.21
2022-12-16T06:16:10.938Z,-7.31
2022-12-16T06:19:17.937Z,-7.71
2022-12-16T06:22:23.739Z,-7.18
2022-12-16T06:25:29.069Z,-7.14
2022-12-16T06:28:34.798Z,-7.27
2022-12-16T06:31:40.666Z,-7.58
2022-12-16T06:34:47.535Z,-7.56
2022-12-16T06:37:52.903Z,-7.54
2022-12-16T06:40:58.590Z,-7.60
2022-12-16T06:44:04.150Z,-7.64
2022-12-16T06:47:09.975Z,-7.66
2022-12-16T06:50:16.856Z,-7.61
2022-12-16T06:53:23.154Z,-7.67
2022-12-16T06:56:28.883Z,-7.62
2022-12-16T06:59:34.176Z,-7.64
2022-12-16T07:02:39.682Z,-7.70
2022-12-16T07:05:27.110Z,-7.58
2022-12-16T07:08:12.515Z,-7.63
2022-12-16T07:11:04.873Z,-7.67
2022-12-16T07:14:01.480Z,-7.72
2022-12-16T07:16:46.826Z,-7.74
2022-12-16T07:19:32.107Z,-7.80
2022-12-16T07:22:18.845Z,-7.72
2022-12-16T07:25:03.887Z,-7.83
2022-12-16T07:27:49.204Z,-7.69
2022-12-16T07:30:34.791Z,-7.53
2022-12-16T07:33:20.193Z,-7.54
2022-12-16T07:36:06.140Z,-7.21
2022-12-16T07:38:52.619Z,-7.18
2022-12-16T07:41:37.884Z,-7.14
2022-12-16T07:44:25.976Z,-7.09
2022-12-16T07:47:17.120Z,-6.97
2022-12-16T07:50:02.600Z,-6.95
2022-12-16T07:52:47.780Z,-7.00
2022-12-16T07:55:34.473Z,-6.89
2022-12-16T07:58:19.681Z,-6.95
2022-12-16T08:01:09.453Z,-6.91
2022-12-16T08:03:55.106Z,-7.10
2022-12-16T08:06:41.333Z,-7.06
2022-12-16T08:09:22.960Z,-7.08
2022-12-16T08:12:09.756Z,-7.11
2022-12-16T08:14:55.148Z,-6.99
2022-12-16T08:17:43.088Z,-7.05
2022-12-16T08:20:29.145Z,-7.07
2022-12-16T08:23:14.496Z,-7.09
2022-12-16T08:25:59.925Z,-6.88
2022-12-16T08:28:46.575Z,-6.78
2022-12-16T08:31:31.867Z,-6.65
2022-12-16T08:34:17.334Z,-6.64
2022-12-16T08:37:02.583Z,-6.60
2022-12-16T08:39:59.134Z,-6.61
2022-12-16T08:42:52.896Z,-6.49
2022-12-16T08:45:40.034Z,-6.34
2022-12-16T08:48:25.703Z,-6.32
2022-12-16T08:51:10.952Z,-6.26
2022-12-16T08:53:56.324Z,-6.22
2022-12-16T08:56:41.650Z,-6.24
2022-12-16T08:59:27.434Z,-6.28
2022-12-16T09:02:14.533Z,-6.20
2022-12-16T09:04:59.815Z,-6.00
2022-12-16T09:07:45.130Z,-5.96
2022-12-16T09:10:33.375Z,-5.88
2022-12-16T09:13:32.990Z,-5.84
2022-12-16T09:16:19.823Z,-5.88
2022-12-16T09:19:06.457Z,-5.90
2022-12-16T09:21:52.784Z,-5.75
2022-12-16T09:24:42.422Z,-6.19
2022-12-16T09:27:27.868Z,-5.41
2022-12-16T09:30:13.209Z,-5.35
2022-12-16T09:33:00.582Z,-5.22
2022-12-16T09:35:47.467Z,-5.47
2022-12-16T09:38:33.076Z,-5.23
2022-12-16T09:41:38.388Z,-5.04
2022-12-16T09:44:36.186Z,-4.98
2022-12-16T09:47:29.149Z,-4.85
2022-12-16T09:50:14.951Z,-4.77
2022-12-16T09:53:06.638Z,-4.74
2022-12-16T09:55:57.529Z,-4.67
2022-12-16T09:58:46.174Z,-4.48
2022-12-16T10:01:32.476Z,-4.37
2022-12-16T10:04:18.222Z,-4.20
2022-12-16T10:07:05.599Z,-4.04
2022-12-16T10:10:03.249Z,-3.96
2022-12-16T10:12:58.211Z,-3.57
2022-12-16T10:15:51.122Z,-3.57
2022-12-16T10:18:49.588Z,-3.43
2022-12-16T10:21:39.799Z,-3.54
2022-12-16T10:24:36.216Z,-3.31
2022-12-16T10:27:31.998Z,-3.04
2022-12-16T10:30:19.346Z,-2.93
2022-12-16T10:33:06.514Z,-3.04
2022-12-16T10:35:55.947Z,-2.90
2022-12-16T10:38:46.737Z,-2.76
2022-12-16T10:41:32.554Z,-2.66
2022-12-16T10:44:31.740Z,-2.49
2022-12-16T10:47:16.930Z,-2.38
2022-12-16T10:50:16.746Z,-2.91
2022-12-16T10:53:08.123Z,-2.69
2022-12-16T10:56:00.870Z,-2.30
2022-12-16T10:58:57.881Z,-2.07
2022-12-16T11:01:46.695Z,-2.01
2022-12-16T11:04:52.136Z,-2.08
2022-12-16T11:07:59.231Z,-2.09
2022-12-16T11:10:52.162Z,-2.05
2022-12-16T11:13:42.453Z,-1.78
2022-12-16T11:16:34.402Z,-1.67
2022-12-16T11:19:21.506Z,-1.56
2022-12-16T11:22:21.871Z,-1.53
2022-12-16T11:25:23.745Z,-1.54
2022-12-16T11:28:08.974Z,-1.25
2022-12-16T11:30:54.515Z,-1.25
2022-12-16T11:33:44.287Z,-1.41
2022-12-16T11:36:35.206Z,-1.44
2022-12-16T11:39:21.109Z,-1.31
2022-12-16T11:42:08.773Z,-1.21
2022-12-16T11:45:01.735Z,-1.19
2022-12-16T11:47:56.662Z,-1.09
2022-12-16T11:50:44.107Z,-1.08
2022-12-16T11:53:45.199Z,-1.08
2022-12-16T11:56:34.442Z,-0.98
2022-12-16T11:59:24.819Z,-0.68
2022-12-16T12:02:16.269Z,-0.64
2022-12-16T12:05:01.424Z,-0.64
2022-12-16T12:07:55.803Z,-0.64
2022-12-16T12:11:08.318Z,-0.55
2022-12-16T12:14:10.336Z,-0.36
2022-12-16T12:17:06.460Z,-0.32
2022-12-16T12:20:01.286Z,-0.92
2022-12-16T12:22:53.235Z,-0.37
2022-12-16T12:25:43.872Z,-0.30
2022-12-16T12:28:44.407Z,-0.23
2022-12-16T12:31:41.533Z,-0.16
2022-12-16T12:34:35.798Z,-0.30
2022-12-16T12:37:27.112Z,-0.30
2022-12-16T12:40:18.647Z,-0.21
2022-12-16T12:43:07.830Z,-0.12
2022-12-16T12:46:07.513Z,-0.20
2022-12-16T12:49:01.210Z,-0.32
2022-12-16T12:51:52.813Z,-0.22
2022-12-16T12:54:47.209Z,-0.23
2022-12-16T12:57:36.037Z,-0.19
2022-12-16T13:00:24.962Z,0.09
2022-12-16T13:03:19.996Z,0.11
2022-12-16T13:06:06.844Z,0.09
2022-12-16T13:09:01.909Z,0.15
2022-12-16T13:11:47.758Z,0.10
2022-12-16T13:15:11.904Z,0.05
2022-12-16T13:18:38.422Z,0.06
2022-12-16T13:21:43.683Z,0.12
2022-12-16T13:24:43.451Z,-0.07
2022-12-16T13:27:32.104Z,-0.04
2022-12-16T13:30:35.611Z,-0.09
2022-12-16T13:33:41.693Z,0.03
2022-12-16T13:36:28.770Z,-0.10
2022-12-16T13:39:16.199Z,-0.09
2022-12-16T13:42:16.252Z,-0.06
2022-12-16T13:45:18.369Z,-0.17
2022-12-16T13:48:21.829Z,-0.32
2022-12-16T13:51:18.024Z,-0.39
2022-12-16T13:54:10.350Z,-0.45
2022-12-16T13:57:00.713Z,-0.40
2022-12-16T13:59:50.180Z,-0.43
2022-12-16T14:02:47.465Z,-0.37
2022-12-16T14:05:36.985Z,-0.51
2022-12-16T14:08:29.780Z,-0.59
2022-12-16T14:11:19.084Z,-0.66
2022-12-16T14:14:11.226Z,-1.05
2022-12-16T14:17:06.289Z,-0.73
2022-12-16T14:19:56.935Z,-0.72
2022-12-16T14:22:57.503Z,-0.75
2022-12-16T14:25:44.264Z,-0.78
2022-12-16T14:28:41.577Z,-1.65
2022-12-16T14:31:34.663Z,-0.90
2022-12-16T14:34:20.996Z,-0.90
2022-12-16T14:37:06.744Z,-0.96
2022-12-16T14:39:57.696Z,-1.00
2022-12-16T14:42:46.581Z,-1.04
2022-12-16T14:45:46.917Z,-1.10
2022-12-16T14:48:34.216Z,-1.11
2022-12-16T14:51:34.358Z,-1.27
2022-12-16T14:54:34.951Z,-1.26
2022-12-16T14:57:20.142Z,-1.27
2022-12-16T15:00:06.936Z,-1.32
2022-12-16T15:02:59.675Z,-1.52
2022-12-16T15:05:51.605Z,-1.61
2022-12-16T15:08:39.493Z,-1.72
2022-12-16T15:11:27.997Z,-1.76
2022-12-16T15:14:16.467Z,-1.82
2022-12-16T15:17:04.757Z,-1.91
2022-12-16T15:20:03.159Z,-2.03
2022-12-16T15:22:49.440Z,-2.11
2022-12-16T15:25:42.572Z,-2.27
2022-12-16T15:28:43.035Z,-2.42
2022-12-16T15:31:32.810Z,-2.53
2022-12-16T15:34:40.490Z,-2.63
2022-12-16T15:37:34.437Z,-2.79
2022-12-16T15:40:19.723Z,-2.74
2022-12-16T15:43:09.182Z,-2.68
2022-12-16T15:45:55.570Z,-2.72
2022-12-16T15:48:44.782Z,-2.64
2022-12-16T15:51:43.147Z,-2.77
2022-12-16T15:54:34.609Z,-2.90
2022-12-16T15:57:20.427Z,-3.01
2022-12-16T16:00:17.024Z,-3.08
2022-12-16T16:03:07.384Z,-3.12
2022-12-16T16:05:54.768Z,-3.23
2022-12-16T16:08:41.513Z,-3.43
2022-12-16T16:11:27.157Z,-3.53
2022-12-16T16:14:14.570Z,-3.59
2022-12-16T16:16:59.864Z,-3.65
2022-12-16T16:19:45.867Z,-3.94
2022-12-16T16:22:33.263Z,-3.83
2022-12-16T16:25:19.857Z,-3.94
2022-12-16T16:28:05.319Z,-3.88
2022-12-16T16:30:50.658Z,-3.97
2022-12-16T16:33:36.220Z,-4.11
2022-12-16T16:36:32.368Z,-4.08
2022-12-16T16:39:17.539Z,-4.13
2022-12-16T16:42:04.197Z,-4.13
2022-12-16T16:45:04.044Z,-4.24
2022-12-16T16:47:50.480Z,-4.30
2022-12-16T16:50:35.649Z,-4.39
2022-12-16T16:53:20.841Z,-4.40
2022-12-16T16:56:06.281Z,-4.46
2022-12-16T16:58:53.110Z,-4.52
2022-12-16T17:01:38.636Z,-4.62
2022-12-16T17:04:23.924Z,-4.61
2022-12-16T17:07:09.100Z,-4.65
2022-12-16T17:09:54.345Z,-4.62
2022-12-16T17:12:43.922Z,-4.68
2022-12-16T17:15:37.039Z,-4.67
2022-12-16T17:18:22.916Z,-4.73
2022-12-16T17:21:08.510Z,-4.74
2022-12-16T17:23:54.011Z,-4.59
2022-12-16T17:26:39.190Z,-4.54
2022-12-16T17:29:24.630Z,-4.43
2022-12-16T17:32:11.218Z,-4.48
2022-12-16T17:34:56.289Z,-4.52
2022-12-16T17:37:41.745Z,-4.63
2022-12-16T17:40:28.259Z,-4.78
2022-12-16T17:43:13.194Z,-4.89
2022-12-16T17:45:58.471Z,-4.92
2022-12-16T17:48:45.789Z,-4.98
2022-12-16T17:51:31.343Z,-5.10
2022-12-16T17:54:23.867Z,-5.15
2022-12-16T17:57:07.838Z,-5.13
2022-12-16T17:59:54.763Z,-5.06
2022-12-16T18:02:40.277Z,-5.20
2022-12-16T18:05:34.712Z,-5.12
2022-12-16T18:08:23.480Z,-5.16
2022-12-16T18:11:10.727Z,-5.14
2022-12-16T18:13:56.120Z,-5.16
2022-12-16T18:16:41.630Z,-5.14
2022-12-16T18:19:29.660Z,-5.16
2022-12-16T18:22:16.754Z,-5.18
2022-12-16T18:25:02.052Z,-5.28
2022-12-16T18:27:47.488Z,-5.23
2022-12-16T18:30:33.307Z,-5.17
2022-12-16T18:33:18.518Z,-5.21
2022-12-16T18:36:03.904Z,-5.22
2022-12-16T18:38:50.444Z,-5.52
2022-12-16T18:41:37.136Z,-5.22
2022-12-16T18:44:23.795Z,-5.07
2022-12-16T18:47:09.257Z,-5.09
2022-12-16T18:49:54.386Z,-5.12
2022-12-16T18:52:39.478Z,-5.17
2022-12-16T18:55:26.592Z,-5.23
2022-12-16T18:58:42.206Z,-5.39
2022-12-16T19:01:21.242Z,-5.43
2022-12-16T19:04:17.868Z,-5.32
2022-12-16T19:07:03.685Z,-5.37
2022-12-16T19:09:48.991Z,-5.46
2022-12-16T19:12:35.740Z,-5.47
2022-12-16T19:15:23.409Z,-5.37
2022-12-16T19:18:08.977Z,-5.41
2022-12-16T19:20:54.679Z,-5.42
2022-12-16T19:23:50.275Z,-5.44
2022-12-16T19:26:35.750Z,-5.50
2022-12-16T19:29:22.640Z,-5.58
2022-12-16T19:32:07.994Z,-5.57
2022-12-16T19:34:53.532Z,-5.52
2022-12-16T19:37:38.947Z,-5.43
2022-12-16T19:40:25.441Z,-5.37
2022-12-16T19:43:10.637Z,-5.34
2022-12-16T19:45:57.009Z,-5.40
2022-12-16T19:48:56.693Z,-5.39
2022-12-16T19:51:42.131Z,-5.47
2022-12-16T19:54:27.199Z,-5.47
2022-12-16T19:57:12.809Z,-5.51
2022-12-16T19:59:58.050Z,-5.59
2022-12-16T20:02:45.054Z,-5.64
2022-12-16T20:05:30.735Z,-5.62
2022-12-16T20:08:16.213Z,-5.67
2022-12-16T20:11:01.481Z,-5.66
2022-12-16T20:13:46.663Z,-5.67
2022-12-16T20:16:32.606Z,-5.68
2022-12-16T20:19:19.351Z,-5.61
2022-12-16T20:25:09.908Z,-5.61
2022-12-16T20:28:09.906Z,-5.56
2022-12-16T20:30:56.204Z,-5.56
2022-12-16T20:33:42.156Z,-5.58
2022-12-16T20:36:25.581Z,-5.68
2022-12-16T20:39:13.320Z,-5.66
2022-12-16T20:41:58.717Z,-5.70
2022-12-16T20:44:44.063Z,-5.60
2022-12-16T20:47:30.554Z,-5.64
2022-12-16T20:50:15.987Z,-5.61
2022-12-16T20:53:02.416Z,-5.64
2022-12-16T20:55:47.639Z,-5.64
2022-12-16T20:58:36.036Z,-5.72
2022-12-16T21:01:21.547Z,-5.78
2022-12-16T21:04:27.211Z,-5.88
2022-12-16T21:07:32.668Z,-5.79
2022-12-16T21:10:40.048Z,-5.88
2022-12-16T21:13:46.245Z,-5.98
2022-12-16T21:16:51.713Z,-6.02
2022-12-16T21:19:57.123Z,-6.14
2022-12-16T21:23:03.064Z,-6.02
2022-12-16T21:26:10.189Z,-5.96
2022-12-16T21:29:16.103Z,-5.95
2022-12-16T21:32:33.192Z,-6.03
2022-12-16T21:35:39.081Z,-5.99
2022-12-16T21:38:44.860Z,-5.87
2022-12-16T21:41:51.981Z,-5.90
2022-12-16T21:44:57.424Z,-6.00
2022-12-16T21:48:03.072Z,-6.03
2022-12-16T21:51:17.430Z,-6.00
2022-12-16T21:54:23.304Z,-6.04
2022-12-16T21:57:38.493Z,-6.13
2022-12-16T22:00:44.238Z,-6.11
2022-12-16T22:03:52.962Z,-6.24
2022-12-16T22:06:59.247Z,-6.24
2022-12-16T22:10:04.968Z,-6.37
2022-12-16T22:13:11.992Z,-6.38
2022-12-16T22:16:18.729Z,-6.45
2022-12-16T22:19:24.504Z,-6.36
2022-12-16T22:22:45.049Z,-6.27
2022-12-16T22:25:55.988Z,-6.30
2022-12-16T22:29:02.913Z,-6.38
2022-12-16T22:32:08.687Z,-6.45
2022-12-16T22:35:15.075Z,-6.44
2022-12-16T22:38:20.413Z,-6.42
2022-12-16T22:41:38.519Z,-6.47
2022-12-16T22:44:45.395Z,-6.50
2022-12-16T22:47:51.161Z,-6.50
2022-12-16T22:50:57.608Z,-6.46
2022-12-16T22:54:03.363Z,-6.49
2022-12-16T22:57:09.217Z,-6.60
2022-12-16T23:00:16.439Z,-6.53
2022-12-16T23:03:22.966Z,-6.59
2022-12-16T23:06:30.998Z,-6.63
2022-12-16T23:09:36.782Z,-6.70
2022-12-16T23:12:42.109Z,-6.61
2022-12-16T23:15:49.133Z,-6.69
2022-12-16T23:18:56.397Z,-6.68
2022-12-16T23:22:02.048Z,-6.70
2022-12-16T23:25:07.861Z,-6.72
2022-12-16T23:28:13.671Z,-6.62
2022-12-16T23:31:20.803Z,-6.64
2022-12-16T23:34:26.313Z,-6.65
2022-12-16T23:37:32.070Z,-6.86
2022-12-16T23:40:37.988Z,-6.76
2022-12-16T23:43:43.761Z,-6.81
2022-12-16T23:46:50.710Z,-6.84
2022-12-16T23:49:58.962Z,-6.77
2022-12-16T23:53:04.483Z,-6.72
2022-12-16T23:56:13.613Z,-6.87
2022-12-16T23:59:18.952Z,-6.78
